sensor_id;sensor_type;location;lat;lon;timestamp;pressure;altitude;pressure_sealevel;temperature;humidity
78773;BME280;68111;44.728;11.290;2023-07-08T00:01:19;102028.84;;;28.70;38.47
78773;BME280;68111;44.728;11.290;2023-07-08T00:03:46;102023.50;;;28.68;38.55
78773;BME280;68111;44.728;11.290;2023-07-08T00:08:45;102016.53;;;28.63;38.29
78773;BME280;68111;44.728;11.290;2023-07-08T00:11:13;102008.59;;;28.58;38.62
78773;BME280;68111;44.728;11.290;2023-07-08T00:13:40;102003.31;;;28.55;38.73
78773;BME280;68111;44.728;11.290;2023-07-08T00:16:12;102006.28;;;28.51;38.69
78773;BME280;68111;44.728;11.290;2023-07-08T00:18:39;102006.44;;;28.48;39.07
78773;BME280;68111;44.728;11.290;2023-07-08T00:21:14;101994.84;;;28.44;38.89
78773;BME280;68111;44.728;11.290;2023-07-08T00:23:44;101995.88;;;28.42;39.10
78773;BME280;68111;44.728;11.290;2023-07-08T00:26:30;101993.41;;;28.37;39.05
78773;BME280;68111;44.728;11.290;2023-07-08T00:28:59;102002.53;;;28.36;39.14
78773;BME280;68111;44.728;11.290;2023-07-08T00:31:25;102006.22;;;28.35;39.16
78773;BME280;68111;44.728;11.290;2023-07-08T00:33:54;102011.81;;;28.32;39.08
78773;BME280;68111;44.728;11.290;2023-07-08T00:36:26;102004.59;;;28.31;39.36
78773;BME280;68111;44.728;11.290;2023-07-08T00:38:53;102003.00;;;28.27;39.50
78773;BME280;68111;44.728;11.290;2023-07-08T00:41:38;101992.28;;;28.24;39.45
78773;BME280;68111;44.728;11.290;2023-07-08T00:44:10;101994.19;;;28.22;39.70
78773;BME280;68111;44.728;11.290;2023-07-08T00:47:10;101978.03;;;28.19;39.43
78773;BME280;68111;44.728;11.290;2023-07-08T00:49:57;101984.50;;;28.16;39.44
78773;BME280;68111;44.728;11.290;2023-07-08T00:52:28;101979.94;;;28.17;39.85
78773;BME280;68111;44.728;11.290;2023-07-08T00:54:57;101984.56;;;28.15;39.96
78773;BME280;68111;44.728;11.290;2023-07-08T00:57:29;101985.53;;;28.14;39.88
78773;BME280;68111;44.728;11.290;2023-07-08T01:00:09;101991.84;;;28.14;39.83
78773;BME280;68111;44.728;11.290;2023-07-08T01:02:40;101992.72;;;28.15;39.53
78773;BME280;68111;44.728;11.290;2023-07-08T01:05:15;101986.41;;;28.14;40.23
78773;BME280;68111;44.728;11.290;2023-07-08T01:07:48;101986.34;;;28.16;39.89
78773;BME280;68111;44.728;11.290;2023-07-08T01:10:22;101983.78;;;28.13;40.04
78773;BME280;68111;44.728;11.290;2023-07-08T01:12:54;101982.00;;;28.12;40.28
78773;BME280;68111;44.728;11.290;2023-07-08T01:15:29;101984.91;;;28.09;40.23
78773;BME280;68111;44.728;11.290;2023-07-08T01:17:58;101985.84;;;28.08;40.27
78773;BME280;68111;44.728;11.290;2023-07-08T01:20:24;101983.28;;;28.04;40.17
78773;BME280;68111;44.728;11.290;2023-07-08T01:22:51;101982.50;;;28.02;40.30
78773;BME280;68111;44.728;11.290;2023-07-08T01:25:18;101974.56;;;27.98;40.49
78773;BME280;68111;44.728;11.290;2023-07-08T01:27:47;101972.97;;;27.94;40.57
78773;BME280;68111;44.728;11.290;2023-07-08T01:30:15;101968.56;;;27.91;40.49
78773;BME280;68111;44.728;11.290;2023-07-08T01:32:48;101978.63;;;27.89;40.92
78773;BME280;68111;44.728;11.290;2023-07-08T01:35:17;101974.16;;;27.88;40.65
78773;BME280;68111;44.728;11.290;2023-07-08T01:37:58;101967.19;;;27.83;40.72
78773;BME280;68111;44.728;11.290;2023-07-08T01:40:32;101975.50;;;27.80;40.81
78773;BME280;68111;44.728;11.290;2023-07-08T01:43:01;101975.75;;;27.75;40.77
78773;BME280;68111;44.728;11.290;2023-07-08T01:45:34;101978.75;;;27.69;40.99
78773;BME280;68111;44.728;11.290;2023-07-08T01:48:09;101978.91;;;27.66;41.13
78773;BME280;68111;44.728;11.290;2023-07-08T01:50:39;101978.19;;;27.62;40.99
78773;BME280;68111;44.728;11.290;2023-07-08T01:53:08;101981.09;;;27.58;41.03
78773;BME280;68111;44.728;11.290;2023-07-08T01:55:36;101981.09;;;27.58;41.15
78773;BME280;68111;44.728;11.290;2023-07-08T01:58:03;101981.25;;;27.55;41.03
78773;BME280;68111;44.728;11.290;2023-07-08T02:00:30;101976.78;;;27.54;41.27
78773;BME280;68111;44.728;11.290;2023-07-08T02:02:57;101979.66;;;27.51;41.42
78773;BME280;68111;44.728;11.290;2023-07-08T02:05:24;101972.59;;;27.47;41.68
78773;BME280;68111;44.728;11.290;2023-07-08T02:07:50;101976.44;;;27.42;42.04
78773;BME280;68111;44.728;11.290;2023-07-08T02:10:17;101982.88;;;27.40;41.88
78773;BME280;68111;44.728;11.290;2023-07-08T02:12:44;101982.88;;;27.40;41.99
78773;BME280;68111;44.728;11.290;2023-07-08T02:15:11;101981.06;;;27.40;41.95
78773;BME280;68111;44.728;11.290;2023-07-08T02:17:38;101982.81;;;27.41;42.07
78773;BME280;68111;44.728;11.290;2023-07-08T02:20:05;101969.22;;;27.41;41.81
78773;BME280;68111;44.728;11.290;2023-07-08T02:22:32;101976.56;;;27.39;42.11
78773;BME280;68111;44.728;11.290;2023-07-08T02:24:59;101973.06;;;27.37;41.95
78773;BME280;68111;44.728;11.290;2023-07-08T02:27:25;101973.13;;;27.36;41.82
78773;BME280;68111;44.728;11.290;2023-07-08T02:29:52;101970.47;;;27.34;41.90
78773;BME280;68111;44.728;11.290;2023-07-08T02:32:19;101976.06;;;27.31;42.05
78773;BME280;68111;44.728;11.290;2023-07-08T02:34:45;101969.94;;;27.26;42.57
78773;BME280;68111;44.728;11.290;2023-07-08T02:37:12;101962.91;;;27.22;42.40
78773;BME280;68111;44.728;11.290;2023-07-08T02:39:39;101952.19;;;27.19;42.49
78773;BME280;68111;44.728;11.290;2023-07-08T02:42:06;101949.53;;;27.18;42.56
78773;BME280;68111;44.728;11.290;2023-07-08T02:44:32;101943.25;;;27.17;42.59
78773;BME280;68111;44.728;11.290;2023-07-08T02:46:59;101938.75;;;27.16;42.72
78773;BME280;68111;44.728;11.290;2023-07-08T02:49:27;101940.66;;;27.14;42.76
78773;BME280;68111;44.728;11.290;2023-07-08T02:52:12;101943.38;;;27.14;42.77
78773;BME280;68111;44.728;11.290;2023-07-08T02:54:39;101945.28;;;27.12;42.74
78773;BME280;68111;44.728;11.290;2023-07-08T02:57:05;101937.44;;;27.06;42.96
78773;BME280;68111;44.728;11.290;2023-07-08T02:59:32;101940.31;;;27.03;43.13
78773;BME280;68111;44.728;11.290;2023-07-08T03:01:59;101942.34;;;26.98;43.10
78773;BME280;68111;44.728;11.290;2023-07-08T03:04:26;101943.41;;;26.94;43.23
78773;BME280;68111;44.728;11.290;2023-07-08T03:06:53;101949.81;;;26.93;43.19
78773;BME280;68111;44.728;11.290;2023-07-08T03:09:20;101952.59;;;26.91;43.30
78773;BME280;68111;44.728;11.290;2023-07-08T03:11:46;101960.00;;;26.88;43.38
78773;BME280;68111;44.728;11.290;2023-07-08T03:14:13;101955.66;;;26.84;43.40
78773;BME280;68111;44.728;11.290;2023-07-08T03:16:40;101954.84;;;26.82;43.69
78773;BME280;68111;44.728;11.290;2023-07-08T03:19:09;101949.56;;;26.78;43.64
78773;BME280;68111;44.728;11.290;2023-07-08T03:21:36;101949.63;;;26.77;43.75
78773;BME280;68111;44.728;11.290;2023-07-08T03:24:03;101936.94;;;26.77;43.71
78773;BME280;68111;44.728;11.290;2023-07-08T03:26:30;101937.91;;;26.76;43.81
78773;BME280;68111;44.728;11.290;2023-07-08T03:28:59;101938.78;;;26.77;43.71
78773;BME280;68111;44.728;11.290;2023-07-08T03:31:27;101934.25;;;26.77;43.72
78773;BME280;68111;44.728;11.290;2023-07-08T03:33:54;101936.00;;;26.78;43.68
78773;BME280;68111;44.728;11.290;2023-07-08T03:36:21;101941.44;;;26.78;43.69
78773;BME280;68111;44.728;11.290;2023-07-08T03:38:56;101944.22;;;26.77;43.73
78773;BME280;68111;44.728;11.290;2023-07-08T03:41:23;101947.00;;;26.75;43.62
78773;BME280;68111;44.728;11.290;2023-07-08T03:43:50;101945.38;;;26.71;43.87
78773;BME280;68111;44.728;11.290;2023-07-08T03:46:20;101932.91;;;26.67;44.04
78773;BME280;68111;44.728;11.290;2023-07-08T03:48:48;101933.06;;;26.64;44.11
78773;BME280;68111;44.728;11.290;2023-07-08T03:51:36;101935.09;;;26.59;44.46
78773;BME280;68111;44.728;11.290;2023-07-08T03:54:04;101933.19;;;26.61;44.21
78773;BME280;68111;44.728;11.290;2023-07-08T03:56:34;101931.44;;;26.60;44.38
78773;BME280;68111;44.728;11.290;2023-07-08T03:59:02;101923.50;;;26.56;44.52
78773;BME280;68111;44.728;11.290;2023-07-08T04:01:30;101919.25;;;26.50;44.55
78773;BME280;68111;44.728;11.290;2023-07-08T04:03:58;101926.72;;;26.45;44.87
78773;BME280;68111;44.728;11.290;2023-07-08T04:06:26;101927.78;;;26.41;44.91
78773;BME280;68111;44.728;11.290;2023-07-08T04:08:53;101936.88;;;26.40;44.95
78773;BME280;68111;44.728;11.290;2023-07-08T04:11:22;101942.31;;;26.40;44.93
78773;BME280;68111;44.728;11.290;2023-07-08T04:13:49;101954.09;;;26.39;45.27
78773;BME280;68111;44.728;11.290;2023-07-08T04:18:47;101955.94;;;26.38;45.42
78773;BME280;68111;44.728;11.290;2023-07-08T04:21:17;101951.47;;;26.37;45.48
78773;BME280;68111;44.728;11.290;2023-07-08T04:23:47;101945.16;;;26.37;45.67
78773;BME280;68111;44.728;11.290;2023-07-08T04:26:14;101942.50;;;26.35;45.74
78773;BME280;68111;44.728;11.290;2023-07-08T04:28:42;101936.22;;;26.35;45.89
78773;BME280;68111;44.728;11.290;2023-07-08T04:31:09;101929.91;;;26.34;46.02
78773;BME280;68111;44.728;11.290;2023-07-08T04:33:36;101932.69;;;26.33;46.18
78773;BME280;68111;44.728;11.290;2023-07-08T04:36:02;101932.69;;;26.33;46.36
78773;BME280;68111;44.728;11.290;2023-07-08T04:38:29;101941.63;;;26.35;46.55
78773;BME280;68111;44.728;11.290;2023-07-08T04:40:56;101944.34;;;26.35;46.50
78773;BME280;68111;44.728;11.290;2023-07-08T04:43:24;101949.69;;;26.36;46.75
78773;BME280;68111;44.728;11.290;2023-07-08T04:45:56;101949.63;;;26.38;46.87
78773;BME280;68111;44.728;11.290;2023-07-08T04:48:23;101955.88;;;26.40;46.75
78773;BME280;68111;44.728;11.290;2023-07-08T04:50:52;101950.38;;;26.41;46.60
78773;BME280;68111;44.728;11.290;2023-07-08T04:53:19;101952.06;;;26.44;47.08
78773;BME280;68111;44.728;11.290;2023-07-08T04:55:48;101959.25;;;26.45;47.03
78773;BME280;68111;44.728;11.290;2023-07-08T04:58:17;101968.19;;;26.47;47.16
78773;BME280;68111;44.728;11.290;2023-07-08T05:00:43;101980.75;;;26.50;47.12
78773;BME280;68111;44.728;11.290;2023-07-08T05:03:10;101982.44;;;26.52;46.94
78773;BME280;68111;44.728;11.290;2023-07-08T05:05:37;101982.28;;;26.55;47.29
78773;BME280;68111;44.728;11.290;2023-07-08T05:08:04;101978.50;;;26.59;47.34
78773;BME280;68111;44.728;11.290;2023-07-08T05:10:31;101975.63;;;26.62;47.13
78773;BME280;68111;44.728;11.290;2023-07-08T05:12:58;101989.06;;;26.65;47.40
78773;BME280;68111;44.728;11.290;2023-07-08T05:15:24;101991.72;;;26.67;47.40
78773;BME280;68111;44.728;11.290;2023-07-08T05:17:51;101988.03;;;26.68;47.44
78773;BME280;68111;44.728;11.290;2023-07-08T05:20:18;101986.13;;;26.70;47.63
78773;BME280;68111;44.728;11.290;2023-07-08T05:22:46;101983.34;;;26.71;47.15
78773;BME280;68111;44.728;11.290;2023-07-08T05:25:13;101985.13;;;26.72;47.26
78773;BME280;68111;44.728;11.290;2023-07-08T05:27:40;101990.53;;;26.72;47.35
78773;BME280;68111;44.728;11.290;2023-07-08T05:30:13;101983.22;;;26.74;47.22
78773;BME280;68111;44.728;11.290;2023-07-08T05:32:40;101978.38;;;26.81;47.22
78773;BME280;68111;44.728;11.290;2023-07-08T05:35:07;101976.34;;;26.86;46.99
78773;BME280;68111;44.728;11.290;2023-07-08T05:37:36;101982.50;;;26.90;47.03
78773;BME280;68111;44.728;11.290;2023-07-08T05:40:03;101980.47;;;26.95;46.81
78773;BME280;68111;44.728;11.290;2023-07-08T05:42:31;101976.69;;;26.99;46.76
78773;BME280;68111;44.728;11.290;2023-07-08T05:44:58;101980.06;;;27.04;46.61
78773;BME280;68111;44.728;11.290;2023-07-08T05:47:24;101974.34;;;27.10;46.55
78773;BME280;68111;44.728;11.290;2023-07-08T05:49:51;101976.75;;;27.16;46.51
78773;BME280;68111;44.728;11.290;2023-07-08T05:52:18;101968.31;;;27.22;46.47
78773;BME280;68111;44.728;11.290;2023-07-08T05:54:45;101978.91;;;27.28;46.30
78773;BME280;68111;44.728;11.290;2023-07-08T05:57:11;101958.75;;;27.34;46.15
78773;BME280;68111;44.728;11.290;2023-07-08T05:59:38;101956.69;;;27.39;46.30
78773;BME280;68111;44.728;11.290;2023-07-08T06:02:06;101954.53;;;27.46;46.17
78773;BME280;68111;44.728;11.290;2023-07-08T06:04:33;101956.00;;;27.53;46.24
78773;BME280;68111;44.728;11.290;2023-07-08T06:07:00;101959.38;;;27.58;45.79
78773;BME280;68111;44.728;11.290;2023-07-08T06:09:26;101959.09;;;27.64;45.73
78773;BME280;68111;44.728;11.290;2023-07-08T06:11:53;101958.78;;;27.70;45.66
78773;BME280;68111;44.728;11.290;2023-07-08T06:14:20;101952.09;;;27.77;46.04
78773;BME280;68111;44.728;11.290;2023-07-08T06:16:47;101948.09;;;27.84;45.92
78773;BME280;68111;44.728;11.290;2023-07-08T06:19:14;101943.22;;;27.91;45.51
78773;BME280;68111;44.728;11.290;2023-07-08T06:21:43;101938.34;;;27.97;45.85
78773;BME280;68111;44.728;11.290;2023-07-08T06:24:10;101943.56;;;28.02;45.77
78773;BME280;68111;44.728;11.290;2023-07-08T06:26:37;101931.56;;;28.06;45.53
78773;BME280;68111;44.728;11.290;2023-07-08T06:29:04;101939.47;;;28.11;45.32
78773;BME280;68111;44.728;11.290;2023-07-08T06:31:49;101941.16;;;28.13;45.42
78773;BME280;68111;44.728;11.290;2023-07-08T06:34:18;101945.56;;;28.16;45.30
78773;BME280;68111;44.728;11.290;2023-07-08T06:36:45;101948.03;;;28.20;45.63
78773;BME280;68111;44.728;11.290;2023-07-08T06:39:11;101932.47;;;28.24;44.92
78773;BME280;68111;44.728;11.290;2023-07-08T06:41:38;101922.31;;;28.27;45.27
78773;BME280;68111;44.728;11.290;2023-07-08T06:44:05;101924.78;;;28.32;45.24
78773;BME280;68111;44.728;11.290;2023-07-08T06:46:32;101931.72;;;28.38;44.96
78773;BME280;68111;44.728;11.290;2023-07-08T06:48:59;101943.16;;;28.44;45.24
78773;BME280;68111;44.728;11.290;2023-07-08T06:51:26;101953.78;;;28.49;45.32
78773;BME280;68111;44.728;11.290;2023-07-08T06:53:53;101961.72;;;28.53;44.99
78773;BME280;68111;44.728;11.290;2023-07-08T06:56:20;101964.19;;;28.58;45.07
78773;BME280;68111;44.728;11.290;2023-07-08T06:58:47;101974.75;;;28.64;44.83
78773;BME280;68111;44.728;11.290;2023-07-08T07:01:14;101971.78;;;28.68;44.79
78773;BME280;68111;44.728;11.290;2023-07-08T07:03:42;101980.59;;;28.74;45.11
78773;BME280;68111;44.728;11.290;2023-07-08T07:06:09;101963.13;;;28.78;44.95
78773;BME280;68111;44.728;11.290;2023-07-08T07:08:36;101955.66;;;28.81;45.04
78773;BME280;68111;44.728;11.290;2023-07-08T07:11:03;101955.53;;;28.84;44.77
78773;BME280;68111;44.728;11.290;2023-07-08T07:13:29;101956.25;;;28.88;44.72
78773;BME280;68111;44.728;11.290;2023-07-08T07:15:56;101945.19;;;28.91;44.73
78773;BME280;68111;44.728;11.290;2023-07-08T07:18:23;101952.22;;;28.95;44.43
78773;BME280;68111;44.728;11.290;2023-07-08T07:20:53;101932.03;;;28.99;44.79
78773;BME280;68111;44.728;11.290;2023-07-08T07:23:21;101922.72;;;29.03;44.77
78773;BME280;68111;44.728;11.290;2023-07-08T07:25:47;101918.69;;;29.10;44.75
78773;BME280;68111;44.728;11.290;2023-07-08T07:28:15;101912.09;;;29.14;44.79
78773;BME280;68111;44.728;11.290;2023-07-08T07:30:44;101913.66;;;29.18;44.21
78773;BME280;68111;44.728;11.290;2023-07-08T07:33:11;101921.50;;;29.24;44.57
78773;BME280;68111;44.728;11.290;2023-07-08T07:35:43;101928.53;;;29.28;44.28
78773;BME280;68111;44.728;11.290;2023-07-08T07:38:10;101949.97;;;29.35;44.12
78773;BME280;68111;44.728;11.290;2023-07-08T07:40:39;101936.94;;;29.40;44.65
78773;BME280;68111;44.728;11.290;2023-07-08T07:43:06;101938.38;;;29.47;44.39
78773;BME280;68111;44.728;11.290;2023-07-08T07:45:33;101934.50;;;29.51;43.30
78773;BME280;68111;44.728;11.290;2023-07-08T07:48:00;101934.16;;;29.57;43.72
78773;BME280;68111;44.728;11.290;2023-07-08T07:50:27;101931.06;;;29.63;43.50
78773;BME280;68111;44.728;11.290;2023-07-08T07:52:53;101925.25;;;29.69;43.38
78773;BME280;68111;44.728;11.290;2023-07-08T07:55:20;101926.72;;;29.75;43.18
78773;BME280;68111;44.728;11.290;2023-07-08T07:57:47;101930.94;;;29.80;43.25
78773;BME280;68111;44.728;11.290;2023-07-08T08:00:14;101932.50;;;29.84;42.58
78773;BME280;68111;44.728;11.290;2023-07-08T08:02:43;101924.94;;;29.89;42.48
78773;BME280;68111;44.728;11.290;2023-07-08T08:05:10;101923.72;;;29.95;42.06
78773;BME280;68111;44.728;11.290;2023-07-08T08:07:37;101915.25;;;30.00;41.90
78773;BME280;68111;44.728;11.290;2023-07-08T08:10:04;101912.19;;;30.06;41.50
78773;BME280;68111;44.728;11.290;2023-07-08T08:12:30;101908.22;;;30.11;41.42
78773;BME280;68111;44.728;11.290;2023-07-08T08:15:10;101906.06;;;30.16;40.59
78773;BME280;68111;44.728;11.290;2023-07-08T08:17:37;101901.31;;;30.20;40.79
78773;BME280;68111;44.728;11.290;2023-07-08T08:20:04;101898.38;;;30.23;40.49
78773;BME280;68111;44.728;11.290;2023-07-08T08:22:31;101914.47;;;30.28;40.21
78773;BME280;68111;44.728;11.290;2023-07-08T08:24:57;101918.66;;;30.33;39.25
78773;BME280;68111;44.728;11.290;2023-07-08T08:27:24;101923.75;;;30.39;38.93
78773;BME280;68111;44.728;11.290;2023-07-08T08:29:51;101930.56;;;30.46;39.02
78773;BME280;68111;44.728;11.290;2023-07-08T08:32:17;101933.88;;;30.51;38.79
78773;BME280;68111;44.728;11.290;2023-07-08T08:34:44;101941.69;;;30.57;38.33
78773;BME280;68111;44.728;11.290;2023-07-08T08:37:11;101935.88;;;30.64;37.96
78773;BME280;68111;44.728;11.290;2023-07-08T08:39:38;101944.66;;;30.69;37.62
78773;BME280;68111;44.728;11.290;2023-07-08T08:42:34;101941.72;;;30.72;37.36
78773;BME280;68111;44.728;11.290;2023-07-08T08:45:00;101949.22;;;30.82;37.23
78773;BME280;68111;44.728;11.290;2023-07-08T08:47:36;101953.63;;;30.85;36.62
78773;BME280;68111;44.728;11.290;2023-07-08T08:50:28;101960.63;;;30.89;35.85
78773;BME280;68111;44.728;11.290;2023-07-08T08:52:57;101964.72;;;30.96;35.11
78773;BME280;68111;44.728;11.290;2023-07-08T08:55:25;101966.09;;;31.03;34.47
78773;BME280;68111;44.728;11.290;2023-07-08T09:00:44;101967.00;;;31.18;33.55
78773;BME280;68111;44.728;11.290;2023-07-08T09:03:17;101964.00;;;31.23;33.24
78773;BME280;68111;44.728;11.290;2023-07-08T09:05:45;101967.28;;;31.28;32.75
78773;BME280;68111;44.728;11.290;2023-07-08T09:08:40;101975.41;;;31.29;32.70
78773;BME280;68111;44.728;11.290;2023-07-08T09:13:54;101977.81;;;31.34;32.68
78773;BME280;68111;44.728;11.290;2023-07-08T09:16:36;101975.19;;;31.32;32.97
78773;BME280;68111;44.728;11.290;2023-07-08T09:19:14;101970.59;;;31.33;32.41
78773;BME280;68111;44.728;11.290;2023-07-08T09:24:27;101976.34;;;31.42;32.40
78773;BME280;68111;44.728;11.290;2023-07-08T09:26:57;101978.75;;;31.47;31.89
78773;BME280;68111;44.728;11.290;2023-07-08T09:29:28;101989.28;;;31.53;31.73
78773;BME280;68111;44.728;11.290;2023-07-08T09:31:55;101991.72;;;31.58;31.87
78773;BME280;68111;44.728;11.290;2023-07-08T09:34:23;101990.63;;;31.60;31.55
78773;BME280;68111;44.728;11.290;2023-07-08T09:37:02;101981.25;;;31.64;31.60
78773;BME280;68111;44.728;11.290;2023-07-08T09:39:29;101981.84;;;31.69;31.25
78773;BME280;68111;44.728;11.290;2023-07-08T09:41:56;101976.19;;;31.72;31.03
78773;BME280;68111;44.728;11.290;2023-07-08T09:44:26;101980.47;;;31.76;30.56
78773;BME280;68111;44.728;11.290;2023-07-08T09:46:56;101985.50;;;31.82;30.76
78773;BME280;68111;44.728;11.290;2023-07-08T09:49:28;101982.25;;;31.90;30.57
78773;BME280;68111;44.728;11.290;2023-07-08T09:51:55;101982.06;;;31.93;30.72
78773;BME280;68111;44.728;11.290;2023-07-08T09:54:23;101987.22;;;31.98;30.64
78773;BME280;68111;44.728;11.290;2023-07-08T09:56:57;101981.72;;;31.98;30.54
78773;BME280;68111;44.728;11.290;2023-07-08T09:59:29;101983.50;;;31.99;30.67
78773;BME280;68111;44.728;11.290;2023-07-08T10:02:04;101985.25;;;32.00;30.72
78773;BME280;68111;44.728;11.290;2023-07-08T10:04:44;101984.06;;;32.04;30.64
78773;BME280;68111;44.728;11.290;2023-07-08T10:07:16;101980.34;;;32.05;30.60
78773;BME280;68111;44.728;11.290;2023-07-08T10:09:53;101979.25;;;32.07;31.00
78773;BME280;68111;44.728;11.290;2023-07-08T10:12:21;101980.88;;;32.10;31.10
78773;BME280;68111;44.728;11.290;2023-07-08T10:14:58;101980.78;;;32.11;30.60
78773;BME280;68111;44.728;11.290;2023-07-08T10:17:26;101983.31;;;32.14;30.80
78773;BME280;68111;44.728;11.290;2023-07-08T10:19:53;101979.47;;;32.17;30.52
78773;BME280;68111;44.728;11.290;2023-07-08T10:22:35;101968.44;;;32.19;30.26
78773;BME280;68111;44.728;11.290;2023-07-08T10:25:39;101956.97;;;32.26;30.29
78773;BME280;68111;44.728;11.290;2023-07-08T10:28:30;101955.69;;;32.32;30.29
78773;BME280;68111;44.728;11.290;2023-07-08T10:33:48;101960.72;;;32.38;30.25
78773;BME280;68111;44.728;11.290;2023-07-08T10:41:34;101941.44;;;32.39;30.38
78773;BME280;68111;44.728;11.290;2023-07-08T10:47:06;101942.00;;;32.44;30.74
78773;BME280;68111;44.728;11.290;2023-07-08T10:56:18;101940.63;;;32.52;30.20
78773;BME280;68111;44.728;11.290;2023-07-08T10:58:58;101935.03;;;32.53;29.89
78773;BME280;68111;44.728;11.290;2023-07-08T11:04:38;101930.97;;;32.59;29.92
78773;BME280;68111;44.728;11.290;2023-07-08T11:07:38;101936.44;;;32.59;29.57
78773;BME280;68111;44.728;11.290;2023-07-08T11:10:18;101927.25;;;32.60;30.02
78773;BME280;68111;44.728;11.290;2023-07-08T11:12:59;101923.53;;;32.61;30.05
78773;BME280;68111;44.728;11.290;2023-07-08T11:15:36;101931.53;;;32.64;30.14
78773;BME280;68111;44.728;11.290;2023-07-08T11:18:23;101929.44;;;32.67;29.80
78773;BME280;68111;44.728;11.290;2023-07-08T11:21:14;101919.34;;;32.68;29.54
78773;BME280;68111;44.728;11.290;2023-07-08T11:23:47;101912.88;;;32.69;29.63
78773;BME280;68111;44.728;11.290;2023-07-08T11:26:40;101917.38;;;32.70;29.65
78773;BME280;68111;44.728;11.290;2023-07-08T11:29:21;101908.81;;;32.74;30.08
78773;BME280;68111;44.728;11.290;2023-07-08T11:31:49;101903.34;;;32.74;29.78
78773;BME280;68111;44.728;11.290;2023-07-08T11:34:18;101908.94;;;32.73;29.87
78773;BME280;68111;44.728;11.290;2023-07-08T11:36:48;101909.81;;;32.73;29.26
78773;BME280;68111;44.728;11.290;2023-07-08T11:39:32;101898.56;;;32.78;29.39
78773;BME280;68111;44.728;11.290;2023-07-08T11:44:47;101895.16;;;32.87;29.14
78773;BME280;68111;44.728;11.290;2023-07-08T11:47:38;101884.19;;;32.87;29.27
78773;BME280;68111;44.728;11.290;2023-07-08T11:50:30;101876.97;;;32.86;29.56
78773;BME280;68111;44.728;11.290;2023-07-08T11:55:36;101882.22;;;32.89;29.21
78773;BME280;68111;44.728;11.290;2023-07-08T11:58:08;101883.72;;;32.93;29.27
78773;BME280;68111;44.728;11.290;2023-07-08T12:01:38;101874.53;;;32.94;28.74
78773;BME280;68111;44.728;11.290;2023-07-08T12:03:47;101869.47;;;33.01;28.40
78773;BME280;68111;44.728;11.290;2023-07-08T12:08:55;101864.41;;;33.07;28.76
78773;BME280;68111;44.728;11.290;2023-07-08T12:11:42;101868.13;;;33.06;28.31
78773;BME280;68111;44.728;11.290;2023-07-08T12:14:10;101871.63;;;33.08;28.47
78773;BME280;68111;44.728;11.290;2023-07-08T12:16:37;101866.16;;;33.08;28.40
78773;BME280;68111;44.728;11.290;2023-07-08T12:19:04;101865.38;;;33.06;28.52
78773;BME280;68111;44.728;11.290;2023-07-08T12:21:34;101862.88;;;33.03;28.89
78773;BME280;68111;44.728;11.290;2023-07-08T12:24:06;101865.84;;;33.00;29.00
78773;BME280;68111;44.728;11.290;2023-07-08T12:26:33;101866.72;;;33.01;29.29
78773;BME280;68111;44.728;11.290;2023-07-08T12:29:00;101875.94;;;33.00;29.21
78773;BME280;68111;44.728;11.290;2023-07-08T12:31:28;101865.97;;;32.99;29.37
78773;BME280;68111;44.728;11.290;2023-07-08T12:33:57;101866.06;;;32.97;29.30
78773;BME280;68111;44.728;11.290;2023-07-08T12:36:26;101859.84;;;32.95;29.51
78773;BME280;68111;44.728;11.290;2023-07-08T12:38:58;101857.31;;;32.92;29.44
78773;BME280;68111;44.728;11.290;2023-07-08T12:41:29;101859.06;;;32.93;29.18
78773;BME280;68111;44.728;11.290;2023-07-08T12:43:56;101855.13;;;32.97;29.56
78773;BME280;68111;44.728;11.290;2023-07-08T12:46:23;101860.59;;;32.97;29.31
78773;BME280;68111;44.728;11.290;2023-07-08T12:48:51;101860.81;;;32.94;29.21
78773;BME280;68111;44.728;11.290;2023-07-08T12:51:23;101860.06;;;32.92;29.53
78773;BME280;68111;44.728;11.290;2023-07-08T12:53:51;101860.19;;;32.91;29.42
78773;BME280;68111;44.728;11.290;2023-07-08T12:56:21;101854.81;;;32.89;29.56
78773;BME280;68111;44.728;11.290;2023-07-08T12:58:56;101859.53;;;32.87;29.52
78773;BME280;68111;44.728;11.290;2023-07-08T13:01:29;101866.00;;;32.86;29.90
78773;BME280;68111;44.728;11.290;2023-07-08T13:04:03;101857.91;;;32.85;29.69
78773;BME280;68111;44.728;11.290;2023-07-08T13:06:33;101858.78;;;32.85;29.64
78773;BME280;68111;44.728;11.290;2023-07-08T13:11:32;101859.53;;;32.87;29.85
78773;BME280;68111;44.728;11.290;2023-07-08T13:14:04;101851.53;;;32.84;29.97
78773;BME280;68111;44.728;11.290;2023-07-08T13:16:34;101851.44;;;32.86;29.96
78773;BME280;68111;44.728;11.290;2023-07-08T13:19:02;101867.88;;;32.86;29.64
78773;BME280;68111;44.728;11.290;2023-07-08T13:21:30;101862.38;;;32.86;29.57
78773;BME280;68111;44.728;11.290;2023-07-08T13:23:58;101849.69;;;32.85;29.82
78773;BME280;68111;44.728;11.290;2023-07-08T13:26:28;101841.69;;;32.82;29.87
78773;BME280;68111;44.728;11.290;2023-07-08T13:29:10;101844.53;;;32.80;30.05
78773;BME280;68111;44.728;11.290;2023-07-08T13:31:38;101847.28;;;32.80;30.00
78773;BME280;68111;44.728;11.290;2023-07-08T13:34:16;101849.25;;;32.78;29.88
78773;BME280;68111;44.728;11.290;2023-07-08T13:36:45;101849.16;;;32.80;29.97
78773;BME280;68111;44.728;11.290;2023-07-08T13:39:17;101844.66;;;32.79;30.09
78773;BME280;68111;44.728;11.290;2023-07-08T13:41:45;101839.06;;;32.80;29.56